createdAt,value
2023-05-20T00:02:04.904Z,74.86
2023-05-20T00:04:22.096Z,74.57
2023-05-20T00:06:39.554Z,74.93
2023-05-20T00:08:56.543Z,73.75
2023-05-20T00:11:13.827Z,76.06
2023-05-20T00:13:30.933Z,75.06
2023-05-20T00:15:48.329Z,75.98
2023-05-20T00:18:05.767Z,75.58
2023-05-20T00:20:23.133Z,74.57
2023-05-20T00:22:40.492Z,75.32
2023-05-20T00:24:59.532Z,75.94
2023-05-20T00:27:16.838Z,74.25
2023-05-20T00:29:33.865Z,73.47
2023-05-20T00:31:51.676Z,74.39
2023-05-20T00:34:09.144Z,74.30
2023-05-20T00:36:27.122Z,74.98
2023-05-20T00:38:44.862Z,72.31
2023-05-20T00:41:02.384Z,71.80
2023-05-20T00:43:19.390Z,71.45
2023-05-20T00:45:39.876Z,69.29
2023-05-20T00:47:57.379Z,68.94
2023-05-20T00:50:15.124Z,68.35
2023-05-20T00:52:33.171Z,69.59
2023-05-20T00:54:50.933Z,67.90
2023-05-20T00:57:08.340Z,68.84
2023-05-20T00:59:26.666Z,68.58
2023-05-20T01:01:44.018Z,67.95
2023-05-20T01:04:01.516Z,69.33
2023-05-20T01:06:18.437Z,69.15
2023-05-20T01:08:35.699Z,68.38
2023-05-20T01:10:52.648Z,67.89
2023-05-20T01:13:09.632Z,68.96
2023-05-20T01:15:26.600Z,67.91
2023-05-20T01:17:43.602Z,68.84
2023-05-20T01:20:00.878Z,69.29
2023-05-20T01:22:18.185Z,67.32
2023-05-20T01:24:35.833Z,68.01
2023-05-20T01:26:53.189Z,68.30
2023-05-20T01:29:10.496Z,69.77
2023-05-20T01:31:27.476Z,69.73
2023-05-20T01:33:44.859Z,68.64
2023-05-20T01:36:02.142Z,69.30
2023-05-20T01:38:19.540Z,70.51
2023-05-20T01:40:36.550Z,70.09
2023-05-20T01:42:53.862Z,70.48
2023-05-20T01:45:10.800Z,70.40
2023-05-20T01:47:28.141Z,70.87
2023-05-20T01:49:45.517Z,69.68
2023-05-20T01:52:03.790Z,71.02
2023-05-20T01:54:21.093Z,70.69
2023-05-20T01:56:38.380Z,70.82
2023-05-20T01:58:56.972Z,72.15
2023-05-20T02:01:14.423Z,72.18
2023-05-20T02:03:31.685Z,71.34
2023-05-20T02:05:48.782Z,72.22
2023-05-20T02:08:05.891Z,73.36
2023-05-20T02:10:23.253Z,72.68
2023-05-20T02:12:40.500Z,72.68
2023-05-20T02:14:57.562Z,72.67
2023-05-20T02:17:14.844Z,72.66
2023-05-20T02:19:32.246Z,71.64
2023-05-20T02:21:49.671Z,72.21
2023-05-20T02:24:07.044Z,71.50
2023-05-20T02:26:24.001Z,71.57
2023-05-20T02:28:41.267Z,71.07
2023-05-20T02:30:58.985Z,70.40
2023-05-20T02:33:16.348Z,71.04
2023-05-20T02:35:33.808Z,71.12
2023-05-20T02:37:51.366Z,70.79
2023-05-20T02:40:09.742Z,70.34
2023-05-20T02:42:26.734Z,71.65
2023-05-20T02:44:43.926Z,73.11
2023-05-20T02:47:01.156Z,73.34
2023-05-20T02:49:18.072Z,73.83
2023-05-20T02:51:35.395Z,74.73
2023-05-20T02:53:52.366Z,75.11
2023-05-20T02:56:10.639Z,75.40
2023-05-20T02:58:27.904Z,75.63
2023-05-20T03:00:44.854Z,75.30
2023-05-20T03:03:02.699Z,74.91
2023-05-20T03:05:19.842Z,75.34
2023-05-20T03:07:37.566Z,75.65
2023-05-20T03:09:54.917Z,75.90
2023-05-20T03:12:12.330Z,75.86
2023-05-20T03:14:29.267Z,75.93
2023-05-20T03:16:46.262Z,76.28
2023-05-20T03:19:03.590Z,76.39
2023-05-20T03:21:21.289Z,76.10
2023-05-20T03:23:38.608Z,76.31
2023-05-20T03:25:55.554Z,76.44
2023-05-20T03:28:12.932Z,77.11
2023-05-20T03:30:30.171Z,76.80
2023-05-20T03:32:47.635Z,77.04
2023-05-20T03:35:05.070Z,76.95
2023-05-20T03:37:22.036Z,77.48
2023-05-20T03:39:39.013Z,77.70
2023-05-20T03:41:56.344Z,77.90
2023-05-20T03:44:13.634Z,78.30
2023-05-20T03:46:30.598Z,78.63
2023-05-20T03:48:47.992Z,78.24
2023-05-20T03:51:05.331Z,79.07
2023-05-20T03:53:22.626Z,78.99
2023-05-20T03:55:39.944Z,79.38
2023-05-20T03:57:57.022Z,79.78
2023-05-20T04:00:14.281Z,79.89
2023-05-20T04:02:31.775Z,80.31
2023-05-20T04:04:49.135Z,79.80
2023-05-20T04:07:06.505Z,79.20
2023-05-20T04:09:23.791Z,81.15
2023-05-20T04:11:41.511Z,80.87
2023-05-20T04:13:58.429Z,80.03
2023-05-20T04:16:15.547Z,80.51
2023-05-20T04:18:32.517Z,80.98
2023-05-20T04:20:49.855Z,81.88
2023-05-20T04:23:07.209Z,82.50
2023-05-20T04:25:24.233Z,81.95
2023-05-20T04:27:41.893Z,81.89
2023-05-20T04:29:59.174Z,81.40
2023-05-20T04:32:16.139Z,81.66
2023-05-20T04:34:33.177Z,82.96
2023-05-20T04:36:51.421Z,82.05
2023-05-20T04:39:08.757Z,82.09
2023-05-20T04:41:26.086Z,82.84
2023-05-20T04:43:43.832Z,82.24
2023-05-20T04:46:01.164Z,82.97
2023-05-20T04:48:18.117Z,82.38
2023-05-20T04:50:35.435Z,82.13
2023-05-20T04:52:52.845Z,82.00
2023-05-20T04:55:10.133Z,82.10
2023-05-20T04:57:27.820Z,82.88
2023-05-20T04:59:44.743Z,83.80
2023-05-20T05:02:02.105Z,82.79
2023-05-20T05:04:19.335Z,84.19
2023-05-20T05:06:36.733Z,83.63
2023-05-20T05:08:56.453Z,83.19
2023-05-20T05:11:13.347Z,83.90
2023-05-20T05:13:31.615Z,83.74
2023-05-20T05:15:48.609Z,83.09
2023-05-20T05:18:05.965Z,83.34
2023-05-20T05:20:23.187Z,83.56
2023-05-20T05:22:40.342Z,82.27
2023-05-20T05:24:58.101Z,81.09
2023-05-20T05:27:15.373Z,80.43
2023-05-20T05:29:32.691Z,79.85
2023-05-20T05:31:50.088Z,80.21
2023-05-20T05:34:08.416Z,80.44
2023-05-20T05:36:26.299Z,80.19
2023-05-20T05:38:43.642Z,79.32
2023-05-20T05:41:00.904Z,78.85
2023-05-20T05:43:18.262Z,77.46
2023-05-20T05:45:36.605Z,77.10
2023-05-20T05:47:54.053Z,76.92
2023-05-20T05:50:11.113Z,76.87
2023-05-20T05:52:28.383Z,76.32
2023-05-20T05:54:45.655Z,74.01
2023-05-20T05:57:04.504Z,73.75
2023-05-20T05:59:22.754Z,73.26
2023-05-20T06:01:40.085Z,74.26
2023-05-20T06:03:57.674Z,73.44
2023-05-20T06:06:15.035Z,72.44
2023-05-20T06:08:32.370Z,71.70
2023-05-20T06:10:49.709Z,70.89
2023-05-20T06:13:06.733Z,70.97
2023-05-20T06:15:23.759Z,71.03
2023-05-20T06:17:40.716Z,70.92
2023-05-20T06:19:58.354Z,69.10
2023-05-20T06:22:15.648Z,68.70
2023-05-20T06:24:32.985Z,68.58
2023-05-20T06:26:50.376Z,68.14
2023-05-20T06:29:07.725Z,69.66
2023-05-20T06:31:25.804Z,66.48
2023-05-20T06:33:43.224Z,65.93
2023-05-20T06:36:01.167Z,67.29
2023-05-20T06:38:19.304Z,66.72
2023-05-20T06:40:36.685Z,66.59
2023-05-20T06:42:53.997Z,67.40
2023-05-20T06:45:11.644Z,65.27
2023-05-20T06:47:29.062Z,65.76
2023-05-20T06:49:47.658Z,66.42
2023-05-20T06:52:05.870Z,66.00
2023-05-20T06:54:22.850Z,65.31
2023-05-20T06:56:41.071Z,66.34
2023-05-20T06:58:58.358Z,66.90
2023-05-20T07:01:17.790Z,65.73
2023-05-20T07:03:35.219Z,65.23
2023-05-20T07:05:52.551Z,64.39
2023-05-20T07:08:09.594Z,66.73
2023-05-20T07:10:26.989Z,63.96
2023-05-20T07:12:44.096Z,63.55
2023-05-20T07:15:01.420Z,63.88
2023-05-20T07:17:18.718Z,62.86
2023-05-20T07:19:35.668Z,60.63
2023-05-20T07:21:52.914Z,61.02
2023-05-20T07:24:10.279Z,60.66
2023-05-20T07:26:27.295Z,62.55
2023-05-20T07:28:44.619Z,60.69
2023-05-20T07:31:01.672Z,62.57
2023-05-20T07:33:19.003Z,62.61
2023-05-20T07:35:36.579Z,60.25
2023-05-20T07:37:53.605Z,62.73
2023-05-20T07:40:10.932Z,62.06
2023-05-20T07:42:28.243Z,60.52
2023-05-20T07:44:45.604Z,61.54
2023-05-20T07:47:02.971Z,60.65
2023-05-20T07:49:20.243Z,62.47
2023-05-20T07:51:37.656Z,60.35
2023-05-20T07:53:54.904Z,58.45
2023-05-20T07:56:12.277Z,59.47
2023-05-20T07:58:29.621Z,58.42
2023-05-20T08:00:46.919Z,59.67
2023-05-20T08:03:04.022Z,57.75
2023-05-20T08:05:21.660Z,57.23
2023-05-20T08:07:38.957Z,57.78
2023-05-20T08:09:56.266Z,56.75
2023-05-20T08:12:13.566Z,57.24
2023-05-20T08:14:30.960Z,57.76
2023-05-20T08:16:48.251Z,56.84
2023-05-20T08:19:05.400Z,57.29
2023-05-20T08:21:22.727Z,56.55
2023-05-20T08:23:40.621Z,56.36
2023-05-20T08:25:58.086Z,57.28
2023-05-20T08:28:15.426Z,57.75
2023-05-20T08:30:32.368Z,56.90
2023-05-20T08:32:49.668Z,55.17
2023-05-20T08:35:06.704Z,56.42
2023-05-20T08:37:24.010Z,56.89
2023-05-20T08:39:41.342Z,57.98
2023-05-20T08:41:58.473Z,57.93
2023-05-20T08:44:15.728Z,58.63
2023-05-20T08:46:33.687Z,59.19
2023-05-20T08:48:51.021Z,58.52
2023-05-20T08:51:08.376Z,59.29
2023-05-20T08:53:25.308Z,59.35
2023-05-20T08:55:42.586Z,57.67
2023-05-20T08:58:00.216Z,58.58
2023-05-20T09:00:17.631Z,58.54
2023-05-20T09:02:34.899Z,59.54
2023-05-20T09:04:52.248Z,58.79
2023-05-20T09:07:09.583Z,58.87
2023-05-20T09:09:26.976Z,58.37
2023-05-20T09:11:44.377Z,60.71
2023-05-20T09:14:01.735Z,59.54
2023-05-20T09:16:19.156Z,59.33
2023-05-20T09:18:36.643Z,60.44
2023-05-20T09:20:53.573Z,58.92
2023-05-20T09:23:10.873Z,60.81
2023-05-20T09:25:27.864Z,58.39
2023-05-20T09:27:45.269Z,58.24
2023-05-20T09:30:02.641Z,58.20
2023-05-20T09:32:19.612Z,57.31
2023-05-20T09:34:36.918Z,58.58
2023-05-20T09:36:54.009Z,56.92
2023-05-20T09:39:10.921Z,56.92
2023-05-20T09:41:28.197Z,55.62
2023-05-20T09:43:45.414Z,57.51
2023-05-20T09:46:02.818Z,55.04
2023-05-20T09:48:20.220Z,57.64
2023-05-20T09:50:37.555Z,56.21
2023-05-20T09:52:55.936Z,56.46
2023-05-20T09:55:13.308Z,57.79
2023-05-20T09:57:30.646Z,56.44
2023-05-20T09:59:48.402Z,55.24
2023-05-20T10:02:05.851Z,55.79
2023-05-20T10:04:22.917Z,53.33
2023-05-20T10:06:40.626Z,54.57
2023-05-20T10:08:58.017Z,53.49
2023-05-20T10:11:15.382Z,54.53
2023-05-20T10:13:33.609Z,53.83
2023-05-20T10:15:50.592Z,51.24
2023-05-20T10:18:07.930Z,53.40
2023-05-20T10:20:25.275Z,54.47
2023-05-20T10:22:42.656Z,54.64
2023-05-20T10:24:59.896Z,53.34
2023-05-20T10:27:16.873Z,53.58
2023-05-20T10:29:33.844Z,54.32
2023-05-20T10:31:51.206Z,54.31
2023-05-20T10:34:08.097Z,54.43
2023-05-20T10:36:25.031Z,52.11
2023-05-20T10:38:42.393Z,52.33
2023-05-20T10:40:59.334Z,52.30
2023-05-20T10:43:16.336Z,52.60
2023-05-20T10:45:33.354Z,52.20
2023-05-20T10:47:50.919Z,52.56
2023-05-20T10:50:08.301Z,53.88
2023-05-20T10:52:25.210Z,53.99
2023-05-20T10:54:42.476Z,53.44
2023-05-20T10:56:59.423Z,50.67
2023-05-20T10:59:16.789Z,53.46
2023-05-20T11:01:33.747Z,53.00
2023-05-20T11:03:50.756Z,50.97
2023-05-20T11:06:07.815Z,50.46
2023-05-20T11:08:29.238Z,50.06
2023-05-20T11:10:46.896Z,51.51
2023-05-20T11:13:04.257Z,51.29
2023-05-20T11:15:22.024Z,51.79
2023-05-20T11:17:38.988Z,50.03
2023-05-20T11:19:56.260Z,52.10
2023-05-20T11:22:13.163Z,50.90
2023-05-20T11:24:30.459Z,52.29
2023-05-20T11:26:48.144Z,51.60
2023-05-20T11:29:05.124Z,51.98
2023-05-20T11:31:23.418Z,51.04
2023-05-20T11:33:40.745Z,52.41
2023-05-20T11:35:58.141Z,50.99
2023-05-20T11:38:15.522Z,52.61
2023-05-20T11:40:39.017Z,52.82
2023-05-20T11:43:03.800Z,51.01
2023-05-20T11:45:20.810Z,48.86
2023-05-20T11:47:38.133Z,49.58
2023-05-20T11:49:55.379Z,50.28
2023-05-20T11:52:12.716Z,51.79
2023-05-20T11:54:30.667Z,51.42
2023-05-20T11:56:47.947Z,50.54
2023-05-20T11:59:05.261Z,51.47
2023-05-20T12:01:23.400Z,51.17
2023-05-20T12:03:41.223Z,51.39
2023-05-20T12:05:58.344Z,48.65
2023-05-20T12:08:15.304Z,50.21
2023-05-20T12:10:32.692Z,50.84
2023-05-20T12:12:49.745Z,51.40
2023-05-20T12:15:07.059Z,51.93
2023-05-20T12:17:25.441Z,52.98
2023-05-20T12:19:42.492Z,53.17
2023-05-20T12:22:00.511Z,54.76
2023-05-20T12:24:17.518Z,55.44
2023-05-20T12:26:34.444Z,54.56
2023-05-20T12:28:51.811Z,54.96
2023-05-20T12:31:09.221Z,55.61
2023-05-20T12:33:26.290Z,56.96
2023-05-20T12:35:43.595Z,56.87
2023-05-20T12:38:00.929Z,55.97
2023-05-20T12:40:17.972Z,56.04
2023-05-20T12:42:35.402Z,56.58
2023-05-20T12:44:52.914Z,56.77
2023-05-20T12:47:10.285Z,56.43
2023-05-20T12:49:27.329Z,56.63
2023-05-20T12:51:44.672Z,55.47
2023-05-20T12:54:01.994Z,53.74
2023-05-20T12:56:19.297Z,53.19
2023-05-20T12:58:36.733Z,54.67
2023-05-20T13:00:53.739Z,52.64
2023-05-20T13:03:11.402Z,53.06
2023-05-20T13:05:29.337Z,54.26
2023-05-20T13:07:46.705Z,54.20
2023-05-20T13:10:04.064Z,55.02
2023-05-20T13:12:22.415Z,52.79
2023-05-20T13:14:39.442Z,54.26
2023-05-20T13:16:57.641Z,55.23
2023-05-20T13:19:15.021Z,55.09
2023-05-20T13:21:32.038Z,53.70
2023-05-20T13:23:49.415Z,54.66
2023-05-20T13:26:06.806Z,54.86
2023-05-20T13:28:23.798Z,55.68
2023-05-20T13:30:41.128Z,55.83
2023-05-20T13:32:58.128Z,57.10
2023-05-20T13:35:15.137Z,55.75
2023-05-20T13:37:32.458Z,55.11
2023-05-20T13:39:49.814Z,54.71
2023-05-20T13:42:06.767Z,55.05
2023-05-20T13:44:23.806Z,55.45
2023-05-20T13:46:41.731Z,56.05
2023-05-20T13:48:59.149Z,55.76
2023-05-20T13:51:16.422Z,56.25
2023-05-20T13:53:34.347Z,53.24
2023-05-20T13:55:51.675Z,53.12
2023-05-20T13:58:09.050Z,54.63
2023-05-20T14:00:26.400Z,54.95
2023-05-20T14:02:43.845Z,54.59
2023-05-20T14:05:01.612Z,56.04
2023-05-20T14:07:19.607Z,55.06
2023-05-20T14:09:37.055Z,54.39
2023-05-20T14:11:54.588Z,54.21
2023-05-20T14:14:11.948Z,57.22
2023-05-20T14:16:29.428Z,55.46
2023-05-20T14:18:47.824Z,54.74
2023-05-20T14:21:05.039Z,56.70
2023-05-20T14:23:22.391Z,57.08
2023-05-20T14:25:39.736Z,55.81
2023-05-20T14:27:57.015Z,54.60
2023-05-20T14:30:14.293Z,55.85
2023-05-20T14:32:32.612Z,55.13
2023-05-20T14:34:49.973Z,56.03
2023-05-20T14:37:06.936Z,56.57
2023-05-20T14:39:24.214Z,55.25
2023-05-20T14:41:43.346Z,56.76
2023-05-20T14:44:00.787Z,56.61
2023-05-20T14:46:17.903Z,56.08
2023-05-20T14:48:35.287Z,56.08
2023-05-20T14:50:53.739Z,56.48
2023-05-20T14:53:11.129Z,56.84
2023-05-20T14:55:28.466Z,56.92
2023-05-20T14:57:45.814Z,55.25
2023-05-20T15:00:03.230Z,54.78
2023-05-20T15:02:20.630Z,55.16
2023-05-20T15:04:37.933Z,56.46
2023-05-20T15:06:55.282Z,56.08
2023-05-20T15:09:12.718Z,54.42
2023-05-20T15:11:29.732Z,54.87
2023-05-20T15:13:49.463Z,55.26
2023-05-20T15:16:06.486Z,54.68
2023-05-20T15:18:23.825Z,55.07
2023-05-20T15:20:40.998Z,55.61
2023-05-20T15:23:00.927Z,56.34
2023-05-20T15:25:18.738Z,55.85
2023-05-20T15:27:36.085Z,55.83
2023-05-20T15:29:53.404Z,56.71
2023-05-20T15:32:10.689Z,56.84
2023-05-20T15:34:28.002Z,58.30
2023-05-20T15:36:45.372Z,56.38
2023-05-20T15:39:02.850Z,57.89
2023-05-20T15:41:20.185Z,57.48
2023-05-20T15:43:37.571Z,57.55
2023-05-20T15:45:54.932Z,58.22
2023-05-20T15:48:12.294Z,58.14
2023-05-20T15:50:29.735Z,58.64
2023-05-20T15:52:47.145Z,58.19
2023-05-20T15:55:04.164Z,58.72
2023-05-20T15:57:21.082Z,58.77
2023-05-20T15:59:38.417Z,59.04
2023-05-20T16:01:55.656Z,59.36
2023-05-20T16:04:12.771Z,59.53
2023-05-20T16:06:29.845Z,59.25
2023-05-20T16:08:48.123Z,59.25
2023-05-20T16:11:05.084Z,59.07
2023-05-20T16:13:22.392Z,58.26
2023-05-20T16:15:39.343Z,58.30
2023-05-20T16:17:56.446Z,59.29
2023-05-20T16:20:14.488Z,59.50
2023-05-20T16:22:32.824Z,58.83
2023-05-20T16:24:51.433Z,58.39
2023-05-20T16:27:08.711Z,60.03
2023-05-20T16:29:27.042Z,58.73
2023-05-20T16:31:44.713Z,58.90
2023-05-20T16:34:01.717Z,58.83
2023-05-20T16:36:18.984Z,58.54
2023-05-20T16:38:36.121Z,57.82
2023-05-20T16:40:53.481Z,56.24
2023-05-20T16:43:11.830Z,56.27
2023-05-20T16:45:29.264Z,55.13
2023-05-20T16:47:46.686Z,56.37
2023-05-20T16:50:04.072Z,57.20
2023-05-20T16:52:21.482Z,58.50
2023-05-20T16:54:38.956Z,58.49
2023-05-20T16:56:57.225Z,58.59
2023-05-20T16:59:14.348Z,59.27
2023-05-20T17:01:32.666Z,59.02
2023-05-20T17:03:50.058Z,58.98
2023-05-20T17:06:07.520Z,58.90
2023-05-20T17:08:24.916Z,59.08
2023-05-20T17:10:42.194Z,59.57
2023-05-20T17:12:59.564Z,58.30
2023-05-20T17:15:16.909Z,59.92
2023-05-20T17:17:34.246Z,59.81
2023-05-20T17:19:51.616Z,59.29
2023-05-20T17:22:08.566Z,59.86
2023-05-20T17:24:25.892Z,59.47
2023-05-20T17:26:43.142Z,60.52
2023-05-20T17:29:00.501Z,59.34
2023-05-20T17:31:17.805Z,59.77
2023-05-20T17:33:35.220Z,60.26
2023-05-20T17:35:52.568Z,60.30
2023-05-20T17:38:09.690Z,61.21
2023-05-20T17:40:26.998Z,60.93
2023-05-20T17:42:44.422Z,60.48
2023-05-20T17:45:01.531Z,60.80
2023-05-20T17:47:18.612Z,61.10
2023-05-20T17:49:36.925Z,60.56
2023-05-20T17:51:54.261Z,60.68
2023-05-20T17:54:11.609Z,62.04
2023-05-20T17:56:28.693Z,60.98
2023-05-20T17:58:45.811Z,60.38
2023-05-20T18:01:03.132Z,61.44
2023-05-20T18:03:21.519Z,61.46
2023-05-20T18:05:38.933Z,61.65
2023-05-20T18:07:56.276Z,61.61
2023-05-20T18:10:13.956Z,62.02
2023-05-20T18:12:31.202Z,61.24
2023-05-20T18:14:48.496Z,62.84
2023-05-20T18:17:05.888Z,62.17
2023-05-20T18:19:23.098Z,62.81
2023-05-20T18:21:40.458Z,62.20
2023-05-20T18:23:57.797Z,63.24
2023-05-20T18:26:15.163Z,63.49
2023-05-20T18:28:32.461Z,64.38
2023-05-20T18:30:49.758Z,63.78
2023-05-20T18:33:07.485Z,65.11
2023-05-20T18:35:25.185Z,63.45
2023-05-20T18:37:42.550Z,65.77
2023-05-20T18:39:59.832Z,65.75
2023-05-20T18:42:18.111Z,66.22
2023-05-20T18:44:35.438Z,65.61
2023-05-20T18:46:53.366Z,64.02
2023-05-20T18:49:10.712Z,66.53
2023-05-20T18:51:28.074Z,65.03
2023-05-20T18:53:45.170Z,66.13
2023-05-20T18:56:02.555Z,65.12
2023-05-20T18:58:20.053Z,65.53
2023-05-20T19:00:37.556Z,68.46
2023-05-20T19:02:54.954Z,69.18
2023-05-20T19:05:12.368Z,68.50
2023-05-20T19:07:29.705Z,69.86
2023-05-20T19:09:47.474Z,69.68
2023-05-20T19:12:05.828Z,71.15
2023-05-20T19:14:23.145Z,69.67
2023-05-20T19:16:40.527Z,70.55
2023-05-20T19:18:57.435Z,70.62
2023-05-20T19:21:14.748Z,72.66
2023-05-20T19:23:31.889Z,71.42
2023-05-20T19:25:49.304Z,72.39
2023-05-20T19:28:06.654Z,71.71
2023-05-20T19:30:23.964Z,73.22
2023-05-20T19:32:41.430Z,73.23
2023-05-20T19:34:59.140Z,73.09
2023-05-20T19:37:16.507Z,73.40
2023-05-20T19:39:33.986Z,72.99
2023-05-20T19:41:51.388Z,73.31
2023-05-20T19:44:08.513Z,73.31
2023-05-20T19:46:26.071Z,73.09
2023-05-20T19:48:43.486Z,73.15
2023-05-20T19:51:01.804Z,73.41
2023-05-20T19:53:19.183Z,73.29
2023-05-20T19:55:37.807Z,73.41
2023-05-20T19:57:56.100Z,73.93
2023-05-20T20:00:13.736Z,72.65
2023-05-20T20:02:31.114Z,73.96
2023-05-20T20:04:48.217Z,73.83
2023-05-20T20:07:07.996Z,74.02
2023-05-20T20:09:27.328Z,73.77
2023-05-20T20:11:45.360Z,74.19
2023-05-20T20:14:02.732Z,73.65
2023-05-20T20:16:19.899Z,73.73
2023-05-20T20:18:37.347Z,74.65
2023-05-20T20:20:55.015Z,74.66
2023-05-20T20:23:12.952Z,75.55
2023-05-20T20:25:29.949Z,75.40
2023-05-20T20:27:48.345Z,75.01
2023-05-20T20:30:05.644Z,76.23
2023-05-20T20:32:24.045Z,76.09
2023-05-20T20:34:41.426Z,75.93
2023-05-20T20:36:58.713Z,75.88
2023-05-20T20:39:15.996Z,75.85
2023-05-20T20:41:33.306Z,76.25
2023-05-20T20:43:50.678Z,76.15
2023-05-20T20:46:08.157Z,76.24
2023-05-20T20:48:26.265Z,76.95
2023-05-20T20:50:43.601Z,76.85
2023-05-20T20:53:00.721Z,77.03
2023-05-20T20:55:17.914Z,77.28
2023-05-20T20:57:35.232Z,77.83
2023-05-20T20:59:53.950Z,78.24
2023-05-20T21:02:11.300Z,78.38
2023-05-20T21:04:29.070Z,79.05
2023-05-20T21:06:46.262Z,78.80
2023-05-20T21:09:04.521Z,78.26
2023-05-20T21:11:21.594Z,78.05
2023-05-20T21:13:39.501Z,78.45
2023-05-20T21:15:56.729Z,77.81
2023-05-20T21:18:14.825Z,77.94
2023-05-20T21:20:32.141Z,78.00
2023-05-20T21:22:49.133Z,77.67
2023-05-20T21:25:06.374Z,77.55
2023-05-20T21:27:24.440Z,77.87
2023-05-20T21:29:41.532Z,77.78
2023-05-20T21:31:59.823Z,77.36
2023-05-20T21:34:16.749Z,77.88
2023-05-20T21:36:34.093Z,77.58
2023-05-20T21:38:52.533Z,77.19
2023-05-20T21:41:09.905Z,77.18
2023-05-20T21:43:26.981Z,77.53
2023-05-20T21:45:43.974Z,77.15
2023-05-20T21:48:01.367Z,77.01
2023-05-20T21:50:18.747Z,77.25
2023-05-20T21:52:37.000Z,77.44
2023-05-20T21:54:54.406Z,76.64
2023-05-20T21:57:11.689Z,76.56
2023-05-20T21:59:28.749Z,77.09
2023-05-20T22:01:46.221Z,77.45
2023-05-20T22:04:04.441Z,77.70
2023-05-20T22:06:22.114Z,78.05
2023-05-20T22:08:39.224Z,77.83
2023-05-20T22:10:56.607Z,77.89
2023-05-20T22:13:14.374Z,77.97
2023-05-20T22:15:31.517Z,78.35
2023-05-20T22:17:49.915Z,78.03
2023-05-20T22:20:06.939Z,78.41
2023-05-20T22:22:24.852Z,77.67
2023-05-20T22:24:42.113Z,77.95
2023-05-20T22:26:59.316Z,77.80
2023-05-20T22:29:16.557Z,77.73
2023-05-20T22:31:33.890Z,77.85
2023-05-20T22:33:51.024Z,77.56
2023-05-20T22:36:08.158Z,78.62
2023-05-20T22:38:25.118Z,78.08
2023-05-20T22:40:42.058Z,78.36
2023-05-20T22:43:00.281Z,78.35
2023-05-20T22:45:17.259Z,78.54
2023-05-20T22:47:34.672Z,79.71
2023-05-20T22:49:52.082Z,78.79
2023-05-20T22:52:11.326Z,78.91
2023-05-20T22:54:28.668Z,79.30
2023-05-20T22:56:46.024Z,79.64
2023-05-20T22:59:02.954Z,79.08
2023-05-20T23:01:20.722Z,78.94
2023-05-20T23:03:38.098Z,79.21
2023-05-20T23:05:56.058Z,80.23
2023-05-20T23:08:13.385Z,79.12
2023-05-20T23:10:30.448Z,80.18
2023-05-20T23:12:47.853Z,80.86
2023-05-20T23:15:05.157Z,80.14
2023-05-20T23:17:22.398Z,80.28
2023-05-20T23:19:39.700Z,79.98
2023-05-20T23:21:56.814Z,80.38
2023-05-20T23:24:13.799Z,80.14
2023-05-20T23:26:30.844Z,79.80
2023-05-20T23:28:48.018Z,79.98
2023-05-20T23:31:05.060Z,80.09
2023-05-20T23:33:25.041Z,80.32
2023-05-20T23:35:43.048Z,80.44
2023-05-20T23:38:00.125Z,81.03
2023-05-20T23:40:17.478Z,80.21
2023-05-20T23:42:34.992Z,79.99
2023-05-20T23:44:51.941Z,79.97
2023-05-20T23:47:09.222Z,81.08
2023-05-20T23:49:26.547Z,80.13
2023-05-20T23:51:43.810Z,81.48
2023-05-20T23:54:01.106Z,81.63
2023-05-20T23:56:18.357Z,81.56
2023-05-20T23:58:35.781Z,81.76
